Time;durP1;ratioP1;P1;durP2;ratioP2;P2;SDS_P1;SDS_P2;PMS_P1;PMS_P2;Temp;Humidity;BMP_temperature;BMP_pressure;BME280_temperature;BME280_humidity;BME280_pressure;Samples;Min_cycle;Max_cycle;Signal;HPM_P1;HPM_P2
2021/12/24 00:01:57;;;;;;;;;5.25;4.25;;;;;20.30;34.10;100544.81;5057914;28;45449;-47
2021/12/24 00:04:23;;;;;;;;;9.75;9.00;;;;;20.34;33.93;100541.09;5057012;28;45502;-50
2021/12/24 00:06:50;;;;;;;;;12.75;9.00;;;;;20.39;33.72;100544.31;5039513;28;45736;-50
2021/12/24 00:09:22;;;;;;;;;7.75;7.00;;;;;20.42;33.82;100538.84;5057903;28;45409;-46
2021/12/24 00:11:49;;;;;;;;;10.00;7.75;;;;;20.49;34.17;100549.84;5057903;28;45354;-51
2021/12/24 00:14:14;;;;;;;;;11.00;9.75;;;;;20.53;33.83;100546.09;5057776;28;47317;-50
2021/12/24 00:16:49;;;;;;;;;12.00;7.00;;;;;20.57;33.75;100544.97;5057550;28;45454;-50
2021/12/24 00:19:33;;;;;;;;;11.25;10.00;;;;;20.60;33.88;100542.16;5057732;28;45388;-49
2021/12/24 00:35:40;;;;;;;;;7.75;7.75;;;;;20.82;33.42;100535.63;5057151;28;45483;-50
2021/12/24 00:38:08;;;;;;;;;10.25;9.50;;;;;20.85;33.97;100530.16;5057196;28;45388;-48
2021/12/24 00:40:39;;;;;;;;;8.25;8.25;;;;;20.88;33.81;100527.34;5057289;28;45542;-47
2021/12/24 00:43:05;;;;;;;;;8.00;8.00;;;;;20.89;33.90;100515.00;5057507;28;45563;-48
2021/12/24 00:45:33;;;;;;;;;8.50;8.50;;;;;20.92;33.55;100520.09;5057028;28;45626;-49
2021/12/24 00:48:00;;;;;;;;;10.75;9.25;;;;;20.93;33.44;100517.34;5056935;28;45442;-51
2021/12/24 00:50:52;;;;;;;;;6.50;6.50;;;;;20.94;33.65;100508.53;5057294;28;45284;-52
2021/12/24 00:56:02;;;;;;;;;9.25;8.25;;;;;20.95;33.74;100494.41;5056926;28;45253;-49
2021/12/24 00:58:27;;;;;;;;;10.00;10.00;;;;;20.94;33.68;100491.88;5038831;28;45473;-48
2021/12/24 01:00:53;;;;;;;;;7.00;7.00;;;;;20.93;33.37;100483.13;5057067;28;45624;-48
2021/12/24 01:03:18;;;;;;;;;7.75;7.75;;;;;20.95;33.45;100481.22;5057029;28;45418;-49
2021/12/24 01:05:44;;;;;;;;;11.75;11.00;;;;;20.93;33.81;100469.94;5038978;28;46320;-49
2021/12/24 01:08:13;;;;;;;;;10.00;8.50;;;;;20.91;33.22;100469.19;5056631;28;45336;-51
2021/12/24 01:10:45;;;;;;;;;11.50;9.25;;;;;20.91;33.42;100463.09;5038707;28;45194;-49
2021/12/24 01:13:11;;;;;;;;;11.75;10.00;;;;;20.90;34.00;100462.22;5056914;28;45425;-50
2021/12/24 01:15:49;;;;;;;;;9.50;8.25;;;;;20.88;33.95;100456.22;5055418;28;45508;-47
2021/12/24 01:18:18;;;;;;;;;9.50;8.25;;;;;20.87;33.42;100459.81;5056991;28;45880;-45
2021/12/24 01:20:49;;;;;;;;;9.50;9.00;;;;;20.87;33.39;100464.22;5056933;28;45418;-48
2021/12/24 01:39:12;;;;;;;;;12.00;12.00;;;;;20.74;33.69;100466.75;5056218;28;45313;-47
2021/12/24 01:44:27;;;;;;;;;9.25;8.50;;;;;20.68;33.93;100466.16;5056577;28;45178;-49
2021/12/24 01:46:54;;;;;;;;;8.50;8.50;;;;;20.67;34.06;100466.28;5056239;28;46211;-52
2021/12/24 01:49:20;;;;;;;;;9.50;9.00;;;;;20.66;34.04;100460.16;5038481;28;45839;-51
2021/12/24 01:51:45;;;;;;;;;12.00;9.50;;;;;20.63;34.44;100462.13;5038798;28;45808;-48
2021/12/24 01:54:11;;;;;;;;;10.25;10.25;;;;;20.62;34.30;100471.81;5056591;28;45587;-51
2021/12/24 01:56:37;;;;;;;;;9.25;8.00;;;;;20.59;33.80;100466.72;5055986;28;45505;-51
2021/12/24 01:59:03;;;;;;;;;11.00;11.00;;;;;20.58;34.10;100467.69;5055977;28;45203;-45
2021/12/24 02:01:28;;;;;;;;;9.75;9.75;;;;;20.58;33.97;100457.13;5056163;28;45325;-49
2021/12/24 02:03:54;;;;;;;;;7.25;7.25;;;;;20.57;34.42;100463.34;5056440;28;45328;-48
2021/12/24 02:06:19;;;;;;;;;8.00;8.00;;;;;20.53;34.26;100457.44;5056317;28;45456;-49
2021/12/24 02:08:45;;;;;;;;;11.00;9.25;;;;;20.51;34.16;100464.56;5055913;28;45347;-49
2021/12/24 02:11:11;;;;;;;;;9.00;9.00;;;;;20.51;34.37;100469.00;5056074;28;45332;-49
2021/12/24 02:13:38;;;;;;;;;9.00;9.00;;;;;20.50;34.14;100470.81;5056178;28;45566;-51
2021/12/24 02:16:20;;;;;;;;;11.00;9.00;;;;;20.49;34.02;100468.25;5037749;28;48102;-46
2021/12/24 02:29:22;;;;;;;;;8.50;8.25;;;;;20.40;34.25;100445.94;5059371;28;45810;-49
2021/12/24 02:31:48;;;;;;;;;9.50;9.50;;;;;20.37;34.58;100441.72;5041569;28;45405;-47
2021/12/24 02:34:13;;;;;;;;;9.75;9.75;;;;;20.36;34.26;100439.19;5059492;28;45212;-47
2021/12/24 02:36:39;;;;;;;;;10.50;9.50;;;;;20.33;34.29;100440.25;5058968;28;46777;-48
2021/12/24 02:39:05;;;;;;;;;10.00;8.00;;;;;20.33;34.46;100439.38;5058941;28;45357;-50
2021/12/24 02:41:31;;;;;;;;;13.75;10.25;;;;;20.30;34.80;100431.66;5059175;28;45398;-48
2021/12/24 02:43:56;;;;;;;;;14.50;10.50;;;;;20.29;34.43;100432.59;5059219;28;45423;-48
2021/12/24 02:46:35;;;;;;;;;9.75;9.75;;;;;20.26;34.83;100431.00;5040997;28;46238;-49
2021/12/24 02:54:16;;;;;;;;;10.00;9.00;;;;;20.21;35.00;100425.19;5059186;28;45407;-49
2021/12/24 02:56:51;;;;;;;;;10.25;9.00;;;;;20.20;34.99;100428.75;5058721;28;46048;-45
2021/12/24 02:59:18;;;;;;;;;9.50;9.00;;;;;20.18;34.65;100428.00;5058789;28;45388;-47
2021/12/24 03:01:46;;;;;;;;;11.25;8.25;;;;;20.18;35.19;100430.63;5058662;28;45307;-48
2021/12/24 03:04:12;;;;;;;;;12.25;9.50;;;;;20.18;34.92;100435.91;5059138;28;45554;-45
2021/12/24 03:06:41;;;;;;;;;9.00;9.00;;;;;20.21;34.92;100435.72;5058575;28;45754;-45
2021/12/24 03:09:09;;;;;;;;;10.25;10.25;;;;;20.26;35.10;100435.44;5058491;28;46036;-47
2021/12/24 03:11:35;;;;;;;;;13.50;11.00;;;;;20.30;34.85;100429.88;5058739;28;45377;-46
2021/12/24 03:14:05;;;;;;;;;9.00;7.50;;;;;20.35;34.85;100425.19;5040854;28;45360;-50
2021/12/24 03:16:30;;;;;;;;;13.75;10.75;;;;;20.41;34.57;100423.97;5040334;28;47120;-50
2021/12/24 03:18:56;;;;;;;;;9.75;8.25;;;;;20.46;35.25;100426.31;5058620;28;45351;-50
2021/12/24 03:21:30;;;;;;;;;11.25;9.25;;;;;20.50;34.99;100427.81;5040685;28;45397;-49
2021/12/24 03:26:30;;;;;;;;;10.50;8.25;;;;;20.58;34.41;100411.56;5058290;28;45254;-48
2021/12/24 03:28:55;;;;;;;;;9.00;8.00;;;;;20.62;34.38;100413.03;5058332;28;45324;-48
2021/12/24 03:31:21;;;;;;;;;11.75;9.00;;;;;20.64;34.88;100406.75;5058715;28;45296;-45
2021/12/24 03:33:48;;;;;;;;;10.25;9.00;;;;;20.67;34.46;100396.00;5058621;28;45700;-47
2021/12/24 03:36:14;;;;;;;;;9.50;9.50;;;;;20.72;34.31;100387.84;5058082;28;46359;-49
2021/12/24 03:38:40;;;;;;;;;12.00;9.75;;;;;20.76;34.69;100399.88;5057133;28;45317;-48
2021/12/24 03:41:05;;;;;;;;;9.75;9.25;;;;;20.79;33.98;100398.84;5058089;28;45457;-49
2021/12/24 03:43:31;;;;;;;;;13.00;10.50;;;;;20.82;34.21;100403.91;5058339;28;45557;-47
2021/12/24 03:46:09;;;;;;;;;8.00;8.00;;;;;20.85;34.64;100401.94;5058036;28;46057;-50
2021/12/24 03:51:39;;;;;;;;;11.25;11.25;;;;;20.92;33.93;100404.19;5058153;28;45351;-47
2021/12/24 03:56:40;;;;;;;;;8.75;8.50;;;;;20.95;34.51;100396.06;5057763;28;45795;-49
2021/12/24 03:59:06;;;;;;;;;11.75;11.75;;;;;20.94;34.04;100379.44;5057915;28;45808;-52
2021/12/24 04:01:33;;;;;;;;;8.25;7.75;;;;;20.97;33.93;100373.09;5057795;28;45414;-48
2021/12/24 04:03:59;;;;;;;;;11.50;11.50;;;;;20.96;34.40;100371.41;5058088;28;45360;-51
2021/12/24 04:06:24;;;;;;;;;11.00;9.25;;;;;20.97;34.19;100371.34;5057925;28;46205;-51
2021/12/24 04:08:50;;;;;;;;;10.00;9.50;;;;;20.96;34.40;100374.91;5057526;28;45298;-50
2021/12/24 04:11:15;;;;;;;;;10.25;9.75;;;;;20.96;33.98;100364.38;5057753;28;45339;-51
2021/12/24 04:13:40;;;;;;;;;9.50;9.50;;;;;20.95;34.31;100356.56;5057958;28;45363;-48
2021/12/24 04:16:06;;;;;;;;;10.00;9.00;;;;;20.94;34.28;100362.78;5057475;28;45834;-49
2021/12/24 04:26:27;;;;;;;;;8.25;8.25;;;;;20.90;34.14;100348.94;5057675;28;45340;-48
2021/12/24 04:28:52;;;;;;;;;11.00;10.50;;;;;20.90;34.53;100341.03;5057551;28;45384;-47
2021/12/24 04:31:23;;;;;;;;;13.00;11.00;;;;;20.88;34.58;100332.44;5057433;28;45421;-48
2021/12/24 04:33:50;;;;;;;;;11.25;9.50;;;;;20.88;34.28;100326.28;5057694;28;45334;-47
2021/12/24 05:01:11;;;;;;;;;22.50;19.50;;;;;20.04;35.45;100319.19;5057212;28;45213;-48
2021/12/24 05:03:25;;;;;;;;;21.25;18.75;;;;;19.30;37.19;100324.41;5056975;28;45311;-47
2021/12/24 05:06:01;;;;;;;;;13.50;13.50;;;;;19.19;37.21;100310.19;5057166;28;45317;-47
2021/12/24 05:08:34;;;;;;;;;20.00;17.25;;;;;19.08;37.57;100311.66;5056796;28;47256;-49
2021/12/24 05:10:59;;;;;;;;;16.00;16.00;;;;;18.99;37.58;100330.59;5056793;28;45740;-48
2021/12/24 05:13:25;;;;;;;;;22.50;18.50;;;;;18.89;38.19;100330.22;5057221;28;45501;-52
2021/12/24 05:15:57;;;;;;;;;18.75;18.75;;;;;18.81;38.28;100317.50;5057191;28;45452;-48
2021/12/24 05:19:02;;;;;;;;;23.25;19.00;;;;;18.75;38.56;100311.75;5056529;28;46871;-47
2021/12/24 05:21:33;;;;;;;;;15.00;13.75;;;;;18.63;38.54;100314.13;5056330;28;45733;-45
2021/12/24 05:24:00;;;;;;;;;16.00;16.00;;;;;18.58;38.82;100316.19;5057185;28;45261;-48
2021/12/24 05:26:25;;;;;;;;;18.50;15.50;;;;;18.56;38.73;100304.91;5057002;28;45343;-50
2021/12/24 05:28:51;;;;;;;;;16.50;15.00;;;;;18.67;38.57;100301.72;5056635;28;47057;-47
2021/12/24 05:31:17;;;;;;;;;17.00;14.00;;;;;18.77;38.23;100296.78;5038467;28;45320;-52
2021/12/24 05:33:43;;;;;;;;;16.00;13.00;;;;;18.90;38.24;100295.16;5038404;28;45423;-49
2021/12/24 05:36:08;;;;;;;;;12.50;12.50;;;;;19.00;38.12;100291.09;5056704;28;45426;-49
2021/12/24 05:38:33;;;;;;;;;12.00;9.00;;;;;19.09;37.92;100297.59;5056223;28;45407;-50
2021/12/24 05:40:59;;;;;;;;;13.50;12.25;;;;;19.16;37.64;100296.31;5056506;28;45392;-46
2021/12/24 05:43:24;;;;;;;;;13.25;13.25;;;;;19.25;37.92;100299.31;5056376;28;45275;-50
2021/12/24 05:45:50;;;;;;;;;14.00;14.00;;;;;19.29;37.60;100299.06;5056506;28;45316;-51
2021/12/24 05:48:15;;;;;;;;;14.75;12.75;;;;;19.33;37.29;100294.50;5056008;28;46679;-50
2021/12/24 05:50:41;;;;;;;;;12.00;11.75;;;;;19.39;37.59;100298.53;5056263;28;45398;-50
2021/12/24 05:53:06;;;;;;;;;12.50;12.25;;;;;19.44;37.33;100310.47;5056419;28;45336;-51
2021/12/24 05:55:32;;;;;;;;;8.75;8.50;;;;;19.46;37.09;100313.00;5056782;28;45471;-51
2021/12/24 05:57:57;;;;;;;;;12.00;12.00;;;;;19.49;37.13;100317.22;5056429;28;46229;-50
2021/12/24 06:00:22;;;;;;;;;12.75;12.00;;;;;19.51;37.16;100316.22;5055951;28;45276;-49
2021/12/24 06:02:48;;;;;;;;;12.25;11.75;;;;;19.54;37.33;100315.19;5039922;28;45222;-51
2021/12/24 06:05:13;;;;;;;;;14.50;11.25;;;;;19.57;36.93;100317.59;5041975;28;45664;-48
2021/12/24 06:07:38;;;;;;;;;12.00;11.75;;;;;19.57;36.94;100312.34;5059536;28;45571;-52
2021/12/24 06:10:05;;;;;;;;;11.25;11.25;;;;;19.60;37.06;100309.53;5059728;28;45269;-49
2021/12/24 06:12:30;;;;;;;;;16.75;12.50;;;;;19.60;36.89;100320.06;5059990;28;45347;-49
2021/12/24 06:15:02;;;;;;;;;12.00;10.00;;;;;19.62;36.86;100320.81;5060049;28;45261;-49
2021/12/24 06:17:27;;;;;;;;;12.50;10.50;;;;;19.60;36.64;100320.91;5059223;28;46681;-51
2021/12/24 06:19:52;;;;;;;;;12.25;12.25;;;;;19.62;37.42;100326.06;5059432;28;45859;-47
2021/12/24 06:22:18;;;;;;;;;13.00;12.00;;;;;19.63;37.15;100322.50;5059560;28;45285;-48
2021/12/24 06:24:43;;;;;;;;;15.75;12.00;;;;;19.64;36.98;100318.94;5059632;28;45243;-49
2021/12/24 06:27:09;;;;;;;;;13.50;12.50;;;;;19.62;36.67;100319.03;5059125;28;46270;-49
2021/12/24 06:29:34;;;;;;;;;12.25;10.75;;;;;19.64;36.77;100313.69;5059251;28;45439;-46
2021/12/24 06:31:59;;;;;;;;;13.25;12.50;;;;;19.66;36.70;100318.84;5041544;28;45619;-48
2021/12/24 06:34:30;;;;;;;;;12.00;12.00;;;;;19.65;36.66;100307.50;5059656;28;45221;-48
2021/12/24 06:36:58;;;;;;;;;11.00;9.00;;;;;19.63;37.00;100298.84;5058977;28;47104;-48
2021/12/24 06:39:24;;;;;;;;;12.00;11.00;;;;;19.65;36.43;100301.38;5059198;28;45787;-50
2021/12/24 06:41:49;;;;;;;;;14.75;10.00;;;;;19.60;36.63;100283.25;5059252;28;45356;-48
2021/12/24 06:44:15;;;;;;;;;13.00;10.75;;;;;19.63;36.94;100294.41;5059199;28;45509;-45
2021/12/24 06:46:42;;;;;;;;;9.50;9.50;;;;;19.63;36.66;100294.41;5058966;28;46611;-51
2021/12/24 06:49:09;;;;;;;;;15.50;11.75;;;;;19.62;37.01;100298.00;5040910;28;45793;-49
2021/12/24 06:51:34;;;;;;;;;9.00;9.00;;;;;19.63;36.99;100293.59;5059475;28;45399;-46
2021/12/24 06:54:00;;;;;;;;;4.75;3.50;;;;;19.63;36.92;100296.22;5059492;28;45602;-46
2021/12/24 06:56:26;;;;;;;;;10.00;10.00;;;;;19.62;36.48;100294.53;5058615;28;47077;-45
2021/12/24 06:58:51;;;;;;;;;11.25;10.00;;;;;19.61;36.74;100303.34;5058798;28;45392;-47
2021/12/24 07:01:17;;;;;;;;;13.50;12.25;;;;;19.60;36.82;100297.25;5058709;28;45399;-48
2021/12/24 07:03:42;;;;;;;;;10.50;10.25;;;;;19.60;37.01;100288.50;5059014;28;45613;-48
2021/12/24 07:06:08;;;;;;;;;9.75;8.25;;;;;19.61;36.70;100295.47;5058682;28;45481;-47
2021/12/24 07:08:34;;;;;;;;;12.00;9.25;;;;;19.59;36.49;100300.81;5058813;28;45336;-51
2021/12/24 07:11:00;;;;;;;;;12.00;10.75;;;;;19.58;37.04;100295.63;5057594;28;45176;-48
2021/12/24 07:13:26;;;;;;;;;10.00;10.00;;;;;19.57;36.75;100293.94;5058961;28;45778;-49
2021/12/24 07:15:51;;;;;;;;;8.50;8.50;;;;;19.56;36.66;100293.13;5058379;28;45575;-46
2021/12/24 07:18:17;;;;;;;;;11.50;11.50;;;;;19.55;36.82;100291.41;5058553;28;45398;-49
2021/12/24 07:20:42;;;;;;;;;10.25;8.75;;;;;19.51;36.75;100284.66;5058592;28;45601;-47
2021/12/24 07:23:08;;;;;;;;;9.00;9.00;;;;;19.54;36.64;100286.25;5058610;28;45395;-49
2021/12/24 07:25:34;;;;;;;;;10.25;8.75;;;;;19.54;37.16;100286.25;5058723;28;45394;-48
2021/12/24 07:28:02;;;;;;;;;11.25;10.00;;;;;19.51;36.98;100282.03;5058227;28;45481;-48
2021/12/24 07:30:28;;;;;;;;;12.50;9.25;;;;;19.53;36.89;100287.19;5058276;28;45293;-51
2021/12/24 07:32:54;;;;;;;;;8.25;6.75;;;;;19.52;37.13;100285.50;5058445;28;45664;-47
2021/12/24 07:35:19;;;;;;;;;8.00;8.00;;;;;19.51;37.09;100279.41;5058190;28;46410;-48
2021/12/24 07:37:45;;;;;;;;;8.75;7.75;;;;;19.51;37.29;100273.28;5058162;28;45236;-48
2021/12/24 07:40:15;;;;;;;;;8.75;8.00;;;;;19.51;36.94;100268.03;5058437;28;45395;-48
2021/12/24 07:42:40;;;;;;;;;9.00;9.00;;;;;19.48;37.39;100269.06;5040373;28;45625;-51
2021/12/24 07:45:08;;;;;;;;;11.50;8.50;;;;;19.45;37.25;100287.66;5058367;28;46159;-49
2021/12/24 07:47:38;;;;;;;;;7.50;7.50;;;;;19.41;37.71;100283.50;5058466;28;45190;-51
2021/12/24 07:50:17;;;;;;;;;11.25;9.25;;;;;19.43;37.64;100297.41;5058392;28;45261;-48
2021/12/24 07:52:44;;;;;;;;;8.75;7.25;;;;;19.39;38.19;100296.75;5058400;28;45311;-49
2021/12/24 07:55:10;;;;;;;;;9.00;8.00;;;;;19.40;38.07;100289.72;5058081;28;46696;-50
2021/12/24 07:57:39;;;;;;;;;10.00;8.75;;;;;19.40;38.24;100282.66;5040292;28;46088;-52
2021/12/24 08:00:06;;;;;;;;;8.75;8.25;;;;;19.41;37.92;100289.63;5058385;28;45480;-53
2021/12/24 08:02:32;;;;;;;;;7.25;7.25;;;;;19.44;38.43;100288.59;5057581;28;45409;-53
2021/12/24 08:04:57;;;;;;;;;7.25;6.50;;;;;19.45;38.31;100287.66;5039718;28;47323;-55
2021/12/24 08:07:23;;;;;;;;;7.00;7.00;;;;;19.47;38.77;100283.97;5057740;28;45335;-54
2021/12/24 08:09:51;;;;;;;;;9.00;7.00;;;;;19.51;38.69;100278.56;5057952;28;45285;-51
2021/12/24 08:12:17;;;;;;;;;11.00;6.50;;;;;19.53;38.30;100281.94;5040229;28;45302;-51
2021/12/24 08:14:42;;;;;;;;;6.00;6.00;;;;;19.55;38.62;100266.94;5039574;28;46234;-54
2021/12/24 08:17:08;;;;;;;;;6.00;6.00;;;;;19.56;38.60;100271.25;5057705;28;45474;-51
2021/12/24 08:19:34;;;;;;;;;7.50;7.50;;;;;19.56;38.82;100260.75;5057752;28;45479;-52
2021/12/24 08:21:59;;;;;;;;;9.00;7.00;;;;;19.55;38.67;100265.13;5057824;28;45422;-49
2021/12/24 08:24:25;;;;;;;;;4.25;4.25;;;;;19.55;38.91;100264.31;5057071;28;45517;-52
2021/12/24 08:26:51;;;;;;;;;6.00;6.00;;;;;19.54;38.88;100265.22;5057130;28;45327;-51
2021/12/24 08:29:16;;;;;;;;;6.00;6.00;;;;;19.54;38.30;100270.50;5057516;28;45505;-51
2021/12/24 08:31:43;;;;;;;;;5.00;4.50;;;;;19.53;38.84;100269.63;5057586;28;45548;-52
2021/12/24 08:34:08;;;;;;;;;4.75;3.50;;;;;19.52;38.54;100269.72;5057695;28;46702;-52
2021/12/24 08:36:35;;;;;;;;;8.00;6.00;;;;;19.50;38.51;100268.97;5057282;28;45249;-50
2021/12/24 08:39:00;;;;;;;;;6.75;5.00;;;;;19.50;38.52;100266.34;5057462;28;45257;-51
2021/12/24 08:41:26;;;;;;;;;5.50;5.50;;;;;19.49;38.95;100260.25;5057408;28;45493;-51
2021/12/24 08:43:52;;;;;;;;;4.50;4.50;;;;;19.49;38.43;100246.25;5057064;28;46061;-52
2021/12/24 08:46:17;;;;;;;;;6.00;5.50;;;;;19.51;38.75;100249.63;5057096;28;45345;-51
2021/12/24 08:48:43;;;;;;;;;6.00;4.00;;;;;19.49;38.69;100244.50;5057043;28;45383;-49
2021/12/24 08:51:08;;;;;;;;;5.00;4.25;;;;;19.50;39.22;100245.31;5057514;28;45590;-51
2021/12/24 08:53:34;;;;;;;;;5.00;5.00;;;;;19.46;38.80;100237.59;5056594;28;46255;-52
2021/12/24 08:55:59;;;;;;;;;7.00;5.75;;;;;19.45;38.71;100243.84;5056916;28;45386;-52
2021/12/24 08:58:25;;;;;;;;;6.00;6.00;;;;;19.45;38.51;100232.47;5057122;28;45443;-52
2021/12/24 09:00:50;;;;;;;;;8.00;6.00;;;;;19.41;38.69;100242.31;5057169;28;45485;-50
2021/12/24 09:03:16;;;;;;;;;6.25;4.50;;;;;19.40;38.65;100245.88;5056824;28;45869;-50
2021/12/24 09:05:42;;;;;;;;;5.00;4.75;;;;;19.41;38.52;100255.44;5056945;28;45307;-50
2021/12/24 09:08:08;;;;;;;;;7.00;5.00;;;;;19.38;38.79;100253.00;5057195;28;45491;-51
2021/12/24 09:10:34;;;;;;;;;5.75;5.25;;;;;19.37;38.68;100248.69;5057118;28;45161;-53
2021/12/24 09:13:00;;;;;;;;;7.00;6.00;;;;;19.39;39.05;100253.88;5055970;28;45439;-50
2021/12/24 09:15:29;;;;;;;;;4.00;4.00;;;;;19.37;39.21;100259.19;5038534;28;45864;-50
2021/12/24 09:17:59;;;;;;;;;7.50;6.25;;;;;19.38;38.68;100257.44;5056822;28;45461;-49
2021/12/24 09:20:30;;;;;;;;;7.25;5.25;;;;;19.39;38.84;100254.69;5056924;28;45214;-52
2021/12/24 09:22:55;;;;;;;;;6.00;5.25;;;;;19.42;39.18;100262.41;5056427;28;46075;-53
2021/12/24 09:25:23;;;;;;;;;6.00;6.00;;;;;19.46;38.72;100263.06;5056545;28;45419;-51
2021/12/24 09:27:49;;;;;;;;;5.25;5.00;;;;;19.49;39.13;100256.78;5056799;28;45244;-53
2021/12/24 09:30:15;;;;;;;;;7.75;5.25;;;;;19.51;38.64;100263.66;5038511;28;45304;-52
2021/12/24 09:32:41;;;;;;;;;9.50;6.00;;;;;19.56;39.04;100269.47;5056625;28;45424;-51
2021/12/24 09:35:08;;;;;;;;;5.50;4.50;;;;;19.60;38.68;100265.72;5055396;28;45400;-50
2021/12/24 09:37:34;;;;;;;;;7.75;4.50;;;;;19.64;38.55;100269.00;5036895;28;45337;-51
2021/12/24 09:40:00;;;;;;;;;5.50;5.50;;;;;19.67;38.56;100265.31;5056614;28;45417;-50
2021/12/24 09:42:26;;;;;;;;;4.25;4.25;;;;;19.70;38.73;100258.09;5056198;28;45379;-53
2021/12/24 09:44:52;;;;;;;;;4.75;4.75;;;;;19.71;38.78;100246.63;5056259;28;45362;-53
2021/12/24 09:47:18;;;;;;;;;4.25;3.25;;;;;19.74;38.47;100245.59;5056298;28;45434;-53
2021/12/24 09:49:44;;;;;;;;;4.00;4.00;;;;;19.75;38.19;100244.66;5056633;28;45602;-53
2021/12/24 09:52:10;;;;;;;;;5.00;4.50;;;;;19.78;38.63;100244.47;5056284;28;45323;-53
2021/12/24 09:54:35;;;;;;;;;5.50;3.75;;;;;19.79;38.28;100238.28;5056219;28;45394;-53
2021/12/24 09:57:01;;;;;;;;;4.50;4.50;;;;;19.80;38.48;100244.38;5056358;28;45344;-51
2021/12/24 09:59:27;;;;;;;;;6.50;5.00;;;;;19.82;38.08;100253.03;5056338;28;45463;-52
2021/12/24 10:01:57;;;;;;;;;6.00;6.00;;;;;19.82;38.08;100253.03;5055939;28;45402;-53
2021/12/24 10:04:26;;;;;;;;;5.00;5.00;;;;;19.83;38.11;100247.69;5056104;28;45190;-52
2021/12/24 10:06:53;;;;;;;;;3.50;3.50;;;;;19.85;38.31;100242.31;5056170;28;45419;-52
2021/12/24 10:09:19;;;;;;;;;4.00;4.00;;;;;19.85;38.24;100226.53;5056240;28;45351;-51
2021/12/24 10:11:54;;;;;;;;;4.75;4.50;;;;;19.85;37.94;100229.19;5055950;28;47282;-53
2021/12/24 10:14:28;;;;;;;;;3.00;2.00;;;;;19.82;38.58;100224.09;5056039;28;45780;-53
2021/12/24 10:16:54;;;;;;;;;5.00;4.00;;;;;19.85;38.22;100231.81;5056061;28;45413;-53
2021/12/24 10:19:20;;;;;;;;;5.00;5.00;;;;;19.86;38.18;100230.91;5056201;28;45412;-52
2021/12/24 10:21:47;;;;;;;;;4.25;4.25;;;;;19.85;38.28;100224.75;5055695;28;46554;-52
2021/12/24 10:24:13;;;;;;;;;3.75;3.00;;;;;19.85;38.23;100230.00;5038167;28;45270;-53
2021/12/24 10:26:47;;;;;;;;;7.00;5.00;;;;;19.85;38.35;100234.44;5037820;28;45363;-52
2021/12/24 10:29:37;;;;;;;;;5.50;4.25;;;;;19.84;38.18;100224.84;5056633;28;45434;-52
2021/12/24 10:32:20;;;;;;;;;9.50;6.00;;;;;19.82;37.85;100217.06;5055668;28;46102;-51
2021/12/24 10:34:46;;;;;;;;;5.75;5.00;;;;;19.83;38.17;100218.75;5055967;28;45808;-52
2021/12/24 10:37:23;;;;;;;;;4.75;3.75;;;;;19.82;38.09;100217.06;5056222;28;45336;-53
2021/12/24 10:39:55;;;;;;;;;4.50;4.50;;;;;19.82;37.72;100209.19;5055881;28;45410;-53
2021/12/24 10:42:35;;;;;;;;;5.00;5.00;;;;;19.81;37.71;100196.09;5055421;28;46228;-52
2021/12/24 10:45:04;;;;;;;;;5.00;5.00;;;;;19.81;37.85;100185.59;5055691;28;45308;-54
2021/12/24 10:47:33;;;;;;;;;4.50;3.00;;;;;19.77;38.37;100184.94;5055745;28;45238;-53
2021/12/24 10:50:08;;;;;;;;;5.25;4.00;;;;;19.79;37.90;100193.59;5041555;28;45462;-52
2021/12/24 10:52:56;;;;;;;;;3.50;3.50;;;;;19.77;37.92;100201.59;5058785;28;47209;-53
2021/12/24 10:55:35;;;;;;;;;4.25;4.00;;;;;19.78;37.84;100200.66;5058866;28;45802;-53
2021/12/24 10:58:03;;;;;;;;;5.25;3.50;;;;;19.76;37.89;100194.63;5059087;28;45245;-52
2021/12/24 11:01:01;;;;;;;;;5.25;5.00;;;;;19.75;38.08;100190.31;5059029;28;45343;-48
2021/12/24 11:03:32;;;;;;;;;3.00;3.00;;;;;19.74;38.30;100191.25;5058377;28;46191;-50
2021/12/24 11:06:07;;;;;;;;;5.25;4.50;;;;;19.75;38.29;100184.19;5058675;28;45370;-49
2021/12/24 11:08:32;;;;;;;;;4.25;4.25;;;;;19.74;38.19;100170.22;5058717;28;45475;-50
2021/12/24 11:11:01;;;;;;;;;4.50;3.50;;;;;19.73;38.27;100158.00;5058975;28;45394;-52
2021/12/24 11:13:32;;;;;;;;;6.25;4.75;;;;;19.73;38.55;100163.25;5058645;28;47394;-50
2021/12/24 11:16:02;;;;;;;;;5.50;5.00;;;;;19.73;38.06;100157.16;5058420;28;45342;-52
2021/12/24 11:18:34;;;;;;;;;4.75;4.75;;;;;19.73;38.21;100149.28;5058669;28;45178;-52
2021/12/24 11:21:20;;;;;;;;;5.75;5.75;;;;;19.71;38.71;100138.00;5040682;28;45380;-51
2021/12/24 11:23:45;;;;;;;;;5.00;5.00;;;;;19.69;38.17;100140.72;5058614;28;45630;-49
2021/12/24 11:26:14;;;;;;;;;6.25;6.00;;;;;19.67;38.45;100128.63;5058659;28;45487;-52
2021/12/24 11:28:40;;;;;;;;;5.00;5.00;;;;;19.67;38.80;100133.88;5058569;28;45272;-52
2021/12/24 11:31:12;;;;;;;;;6.50;6.00;;;;;19.65;39.23;100136.63;5058298;28;45675;-52
2021/12/24 11:33:40;;;;;;;;;5.00;4.00;;;;;19.65;39.74;100133.13;5058285;28;46421;-55
2021/12/24 11:36:08;;;;;;;;;7.00;5.25;;;;;19.62;39.62;100128.91;5058329;28;45237;-51
2021/12/24 11:38:36;;;;;;;;;5.00;4.50;;;;;19.63;39.55;100125.34;5058565;28;45377;-53
2021/12/24 11:41:04;;;;;;;;;8.50;5.75;;;;;19.62;39.95;100123.66;5058459;28;45438;-52
2021/12/24 11:43:35;;;;;;;;;4.00;4.00;;;;;19.63;39.90;100125.34;5058000;28;45388;-46
2021/12/24 11:46:05;;;;;;;;;6.00;4.00;;;;;19.60;39.93;100117.66;5058234;28;45922;-53
2021/12/24 11:48:32;;;;;;;;;5.00;5.00;;;;;19.60;39.86;100128.16;5058224;28;45297;-49
2021/12/24 11:51:10;;;;;;;;;4.75;4.25;;;;;19.59;40.19;100129.97;5058253;28;45333;-53
2021/12/24 11:53:37;;;;;;;;;4.25;4.25;;;;;19.59;40.04;100134.34;5057726;28;46709;-52
2021/12/24 11:56:11;;;;;;;;;6.25;4.75;;;;;19.57;39.98;100130.97;5057870;28;45844;-54
2021/12/24 11:58:57;;;;;;;;;7.00;5.50;;;;;19.55;39.68;100128.44;5058122;28;45468;-52
2021/12/24 12:01:27;;;;;;;;;4.75;4.75;;;;;19.54;39.80;100121.50;5057367;28;45388;-53
2021/12/24 12:03:55;;;;;;;;;5.00;5.00;;;;;19.53;40.07;100126.88;5057809;28;47186;-52
2021/12/24 12:06:23;;;;;;;;;6.75;6.00;;;;;19.52;40.19;100125.19;5057836;28;45966;-50
2021/12/24 12:08:52;;;;;;;;;4.25;4.25;;;;;19.51;40.08;100124.34;5058077;28;45410;-51
2021/12/24 12:11:21;;;;;;;;;5.00;5.00;;;;;19.52;40.38;100122.53;5058406;28;45519;-52
2021/12/24 12:14:04;;;;;;;;;7.75;5.00;;;;;19.52;40.26;100119.91;5057744;28;45618;-52
2021/12/24 12:16:39;;;;;;;;;4.00;4.00;;;;;19.56;40.21;100122.25;5057616;28;45343;-52
2021/12/24 12:19:21;;;;;;;;;5.00;4.50;;;;;19.61;40.28;100129.84;5057812;28;45464;-52
2021/12/24 12:25:29;;;;;;;;;8.00;6.00;;;;;19.70;40.15;100125.81;5057298;28;45226;-54
2021/12/24 12:27:57;;;;;;;;;5.50;5.00;;;;;19.74;40.31;100128.16;4995575;28;45471;-54
2021/12/24 12:30:37;;;;;;;;;6.50;4.25;;;;;19.79;39.80;100135.75;5051944;28;45396;-46
2021/12/24 12:33:03;;;;;;;;;4.50;4.50;;;;;19.82;39.86;100125.03;5057751;28;45340;-51
2021/12/24 12:35:44;;;;;;;;;4.75;4.25;;;;;19.87;39.87;100122.16;5057327;28;45560;-50
2021/12/24 12:38:30;;;;;;;;;6.75;5.75;;;;;19.92;39.76;100120.03;5057319;28;45277;-50
2021/12/24 12:41:31;;;;;;;;;4.75;4.75;;;;;19.94;39.79;100105.00;5057247;28;45339;-51
2021/12/24 12:43:58;;;;;;;;;5.75;5.00;;;;;19.97;39.56;100104.81;5057846;28;45573;-51
2021/12/24 12:46:35;;;;;;;;;7.25;5.00;;;;;19.99;39.83;100118.72;5057134;28;45562;-48
2021/12/24 12:49:05;;;;;;;;;4.75;4.75;;;;;20.01;39.60;100111.56;5057061;28;45824;-50
2021/12/24 12:51:55;;;;;;;;;3.75;3.25;;;;;20.03;40.03;100112.31;5039231;28;45428;-47
2021/12/24 12:54:33;;;;;;;;;5.00;5.00;;;;;20.05;39.95;100105.16;5057892;28;45461;-50
2021/12/24 12:57:28;;;;;;;;;5.75;5.75;;;;;20.08;40.22;100099.72;5056846;28;46377;-49
2021/12/24 13:00:18;;;;;;;;;8.75;6.00;;;;;20.10;40.45;100093.50;5056980;28;45463;-51
2021/12/24 13:03:01;;;;;;;;;5.50;4.75;;;;;20.10;40.30;100073.28;5056977;28;45331;-49